createdAt,value
2023-05-04T00:01:58.351Z,97359.53
2023-05-04T00:04:03.814Z,97357.66
2023-05-04T00:06:08.984Z,97354.72
2023-05-04T00:08:16.797Z,97357.66
2023-05-04T00:10:22.380Z,97347.56
2023-05-04T00:12:27.710Z,97348.09
2023-05-04T00:14:33.259Z,97350.19
2023-05-04T00:16:39.353Z,97349.94
2023-05-04T00:18:44.655Z,97344.34
2023-05-04T00:20:49.654Z,97349.38
2023-05-04T00:22:54.551Z,97350.16
2023-05-04T00:25:02.365Z,97348.06
2023-05-04T00:27:07.673Z,97346.19
2023-05-04T00:29:12.491Z,97353.84
2023-05-04T00:31:19.492Z,97346.69
2023-05-04T00:33:25.182Z,97350.44
2023-05-04T00:35:31.834Z,97345.13
2023-05-04T00:37:36.753Z,97343.53
2023-05-04T00:39:41.693Z,97349.88
2023-05-04T00:41:49.222Z,97345.13
2023-05-04T00:43:54.473Z,97346.22
2023-05-04T00:45:59.736Z,97338.53
2023-05-04T00:48:04.761Z,97343.31
2023-05-04T00:50:11.377Z,97337.78
2023-05-04T00:52:17.913Z,97336.47
2023-05-04T00:54:23.235Z,97346.50
2023-05-04T00:56:27.078Z,97335.69
2023-05-04T00:58:36.398Z,97333.59
2023-05-04T01:00:41.685Z,97340.22
2023-05-04T01:02:47.282Z,97336.53
2023-05-04T01:04:53.853Z,97331.78
2023-05-04T01:07:06.662Z,97336.81
2023-05-04T01:09:19.299Z,97340.81
2023-05-04T01:11:29.780Z,97333.13
2023-05-04T01:13:38.257Z,97337.88
2023-05-04T01:15:43.358Z,97338.97
2023-05-04T01:17:48.490Z,97338.97
2023-05-04T01:19:54.329Z,97339.25
2023-05-04T01:22:02.029Z,97344.00
2023-05-04T01:24:07.798Z,97342.44
2023-05-04T01:26:20.828Z,97342.66
2023-05-04T01:28:36.173Z,97344.03
2023-05-04T01:30:44.114Z,97345.84
2023-05-04T01:32:50.372Z,97345.06
2023-05-04T01:34:55.440Z,97340.31
2023-05-04T01:37:03.983Z,97347.47
2023-05-04T01:39:10.004Z,97342.19
2023-05-04T01:41:15.069Z,97345.88
2023-05-04T01:43:20.283Z,97346.94
2023-05-04T01:45:25.782Z,97340.88
2023-05-04T01:47:31.163Z,97340.06
2023-05-04T01:49:36.448Z,97338.75
2023-05-04T01:51:41.554Z,97340.88
2023-05-04T01:53:49.399Z,97336.66
2023-05-04T01:55:54.305Z,97338.75
2023-05-04T01:57:59.205Z,97334.78
2023-05-04T02:00:04.380Z,97340.34
2023-05-04T02:02:20.400Z,97328.47
2023-05-04T02:04:25.571Z,97334.28
2023-05-04T02:06:31.130Z,97336.41
2023-05-04T02:08:36.302Z,97334.03
2023-05-04T02:10:44.208Z,97330.88
2023-05-04T02:12:49.337Z,97327.69
2023-05-04T02:14:54.692Z,97321.88
2023-05-04T02:16:59.851Z,97327.44
2023-05-04T02:19:05.102Z,97322.97
2023-05-04T02:21:10.320Z,97325.84
2023-05-04T02:23:15.465Z,97323.75
2023-05-04T02:25:20.951Z,97326.66
2023-05-04T02:27:28.756Z,97321.09
2023-05-04T02:29:33.961Z,97325.06
2023-05-04T02:31:39.645Z,97325.31
2023-05-04T02:33:45.156Z,97334.03
2023-05-04T02:35:49.970Z,97329.00
2023-05-04T02:37:55.011Z,97333.53
2023-05-04T02:40:00.053Z,97329.56
2023-05-04T02:42:05.020Z,97337.50
2023-05-04T02:44:13.199Z,97332.19
2023-05-04T02:46:20.439Z,97330.84
2023-05-04T02:48:25.573Z,97332.72
2023-05-04T02:50:31.457Z,97336.13
2023-05-04T02:52:36.781Z,97329.03
2023-05-04T02:54:41.778Z,97329.81
2023-05-04T02:56:46.865Z,97321.88
2023-05-04T02:58:52.173Z,97319.50
2023-05-04T03:01:00.168Z,97326.66
2023-05-04T03:03:05.334Z,97331.94
2023-05-04T03:05:11.165Z,97321.63
2023-05-04T03:07:16.292Z,97316.34
2023-05-04T03:09:21.463Z,97324.28
2023-05-04T03:11:27.012Z,97321.91
2023-05-04T03:13:31.877Z,97319.53
2023-05-04T03:15:37.499Z,97324.00
2023-05-04T03:17:45.369Z,97327.72
2023-05-04T03:19:50.745Z,97325.84
2023-05-04T03:21:56.455Z,97324.25
2023-05-04T03:24:01.692Z,97320.03
2023-05-04T03:26:06.858Z,97321.09
2023-05-04T03:28:11.810Z,97315.81
2023-05-04T03:30:17.222Z,97321.63
2023-05-04T03:32:25.081Z,97324.28
2023-05-04T03:34:33.107Z,97317.66
2023-05-04T03:36:41.775Z,97314.25
2023-05-04T03:38:46.951Z,97314.47
2023-05-04T03:40:52.332Z,97308.69
2023-05-04T03:42:57.451Z,97313.19
2023-05-04T03:45:04.052Z,97315.28
2023-05-04T03:47:09.982Z,97311.34
2023-05-04T03:49:15.009Z,97316.88
2023-05-04T03:51:22.839Z,97317.13
2023-05-04T03:53:28.120Z,97307.63
2023-05-04T03:55:33.493Z,97316.88
2023-05-04T03:57:38.834Z,97317.94
2023-05-04T03:59:44.537Z,97308.44
2023-05-04T04:01:50.062Z,97307.91
2023-05-04T04:03:55.215Z,97311.59
2023-05-04T04:06:00.545Z,97311.59
2023-05-04T04:08:08.857Z,97312.13
2023-05-04T04:10:14.113Z,97302.34
2023-05-04T04:12:20.721Z,97307.09
2023-05-04T04:14:25.637Z,97310.00
2023-05-04T04:16:31.844Z,97312.66
2023-05-04T04:18:37.346Z,97303.13
2023-05-04T04:20:42.250Z,97305.78
2023-05-04T04:22:47.184Z,97305.78
2023-05-04T04:24:54.823Z,97306.84
2023-05-04T04:27:00.290Z,97307.63
2023-05-04T04:29:05.355Z,97307.91
2023-05-04T04:31:11.015Z,97308.69
2023-05-04T04:33:16.931Z,97308.69
2023-05-04T04:35:22.694Z,97315.56
2023-05-04T04:37:27.731Z,97307.63
2023-05-04T04:39:33.092Z,97309.47
2023-05-04T04:41:42.102Z,97314.50
2023-05-04T04:43:47.554Z,97301.28
2023-05-04T04:45:54.146Z,97306.31
2023-05-04T04:47:59.447Z,97305.25
2023-05-04T04:50:04.995Z,97306.81
2023-05-04T04:52:11.392Z,97305.00
2023-05-04T04:54:17.345Z,97314.22
2023-05-04T04:56:22.335Z,97309.75
2023-05-04T04:58:29.974Z,97318.19
2023-05-04T05:00:36.084Z,97321.13
2023-05-04T05:02:41.314Z,97322.69
2023-05-04T05:04:46.510Z,97327.44
2023-05-04T05:06:52.029Z,97330.63
2023-05-04T05:08:57.094Z,97336.16
2023-05-04T05:11:02.262Z,97333.78
2023-05-04T05:13:09.134Z,97340.13
2023-05-04T05:15:17.444Z,97332.72
2023-05-04T05:17:23.355Z,97341.72
2023-05-04T05:19:28.537Z,97346.47
2023-05-04T05:21:33.731Z,97337.22
2023-05-04T05:23:39.020Z,97336.69
2023-05-04T05:25:44.522Z,97343.06
2023-05-04T05:27:50.182Z,97351.25
2023-05-04T05:29:55.320Z,97346.22
2023-05-04T05:32:03.693Z,97352.03
2023-05-04T05:34:08.965Z,97351.22
2023-05-04T05:36:14.724Z,97345.41
2023-05-04T05:38:19.866Z,97347.50
2023-05-04T05:40:25.333Z,97351.19
2023-05-04T05:42:33.149Z,97345.38
2023-05-04T05:44:39.583Z,97345.66
2023-05-04T05:46:44.829Z,97350.91
2023-05-04T05:48:52.511Z,97349.59
2023-05-04T05:50:57.736Z,97345.34
2023-05-04T05:53:02.559Z,97347.19
2023-05-04T05:55:08.181Z,97344.00
2023-05-04T05:57:13.169Z,97346.91
2023-05-04T05:59:18.228Z,97343.72
2023-05-04T06:01:23.071Z,97353.75
2023-05-04T06:03:28.170Z,97341.31
2023-05-04T06:05:37.020Z,97343.69
2023-05-04T06:07:41.924Z,97335.47
2023-05-04T06:09:47.026Z,97340.25
2023-05-04T06:11:54.761Z,97336.78
2023-05-04T06:14:00.478Z,97336.50
2023-05-04T06:16:06.000Z,97341.25
2023-05-04T06:18:10.951Z,97330.13
2023-05-04T06:20:16.333Z,97326.94
2023-05-04T06:22:23.735Z,97327.47
2023-05-04T06:24:30.064Z,97327.44
2023-05-04T06:26:35.362Z,97326.38
2023-05-04T06:28:40.316Z,97316.56
2023-05-04T06:30:45.150Z,97317.59
2023-05-04T06:32:50.251Z,97326.06
2023-05-04T06:34:56.996Z,97322.84
2023-05-04T06:37:02.652Z,97321.03
2023-05-04T06:39:10.365Z,97324.44
2023-05-04T06:41:15.372Z,97328.41
2023-05-04T06:43:20.308Z,97328.41
2023-05-04T06:45:25.460Z,97324.44
2023-05-04T06:47:30.334Z,97326.53
2023-05-04T06:49:35.433Z,97326.50
2023-05-04T06:51:41.046Z,97332.03
2023-05-04T06:53:45.921Z,97334.91
2023-05-04T06:55:53.568Z,97333.34
2023-05-04T06:57:58.904Z,97330.13
2023-05-04T07:00:04.707Z,97328.53
2023-05-04T07:02:10.196Z,97334.06
2023-05-04T07:04:16.549Z,97340.13
2023-05-04T07:06:21.852Z,97327.63
2023-05-04T07:08:27.025Z,97340.03
2023-05-04T07:10:32.008Z,97343.72
2023-05-04T07:12:39.447Z,97335.22
2023-05-04T07:14:45.067Z,97339.72
2023-05-04T07:16:50.954Z,97337.00
2023-05-04T07:18:55.761Z,97333.50
2023-05-04T07:21:16.291Z,97333.47
2023-05-04T07:23:25.490Z,97333.72
2023-05-04T07:25:30.726Z,97331.03
2023-05-04T07:27:35.691Z,97332.06
2023-05-04T07:29:43.700Z,97326.69
2023-05-04T07:31:48.625Z,97329.31
2023-05-04T07:33:54.936Z,97325.00
2023-05-04T07:36:01.150Z,97324.69
2023-05-04T07:38:06.453Z,97314.03
2023-05-04T07:40:15.060Z,97312.59
2023-05-04T07:42:20.638Z,97310.69
2023-05-04T07:44:25.626Z,97311.94
2023-05-04T07:46:33.092Z,97307.09
2023-05-04T07:48:37.942Z,97306.75
2023-05-04T07:50:43.214Z,97301.88
2023-05-04T07:52:49.530Z,97308.72
2023-05-04T07:54:55.844Z,97301.19
2023-05-04T07:57:01.396Z,97305.06
2023-05-04T07:59:06.214Z,97297.56
2023-05-04T08:01:11.246Z,97300.34
2023-05-04T08:03:18.745Z,97307.94
2023-05-04T08:05:23.783Z,97298.28
2023-05-04T08:07:28.668Z,97299.47
2023-05-04T08:09:33.953Z,97303.88
2023-05-04T08:11:38.833Z,97304.47
2023-05-04T08:13:44.004Z,97304.06
2023-05-04T08:15:48.831Z,97312.38
2023-05-04T08:17:55.102Z,97304.44
2023-05-04T08:20:03.015Z,97296.50
2023-05-04T08:22:09.109Z,97301.50
2023-05-04T08:24:13.968Z,97294.34
2023-05-04T08:26:20.858Z,97308.66
2023-05-04T08:28:25.931Z,97303.81
2023-05-04T08:30:31.523Z,97306.47
2023-05-04T08:32:36.394Z,97298.94
2023-05-04T08:34:41.245Z,97299.41
2023-05-04T08:36:49.268Z,97307.03
2023-05-04T08:38:54.134Z,97308.09
2023-05-04T08:40:59.008Z,97304.25
2023-05-04T08:43:03.992Z,97305.16
2023-05-04T08:45:10.752Z,97312.91
2023-05-04T08:47:15.785Z,97290.81
2023-05-04T08:49:21.070Z,97295.41
2023-05-04T08:51:26.594Z,97299.72
2023-05-04T08:53:34.631Z,97298.69
2023-05-04T08:55:42.254Z,97301.06
2023-05-04T08:57:48.980Z,97299.22
2023-05-04T08:59:56.938Z,97302.69
2023-05-04T09:02:04.437Z,97304.03
2023-05-04T09:04:09.640Z,97297.94
2023-05-04T09:06:14.996Z,97297.97
2023-05-04T09:08:20.771Z,97290.28
2023-05-04T09:10:29.872Z,97293.28
2023-05-04T09:12:37.965Z,97289.81
2023-05-04T09:14:44.700Z,97291.41
2023-05-04T09:16:49.767Z,97300.53
2023-05-04T09:18:54.614Z,97298.16
2023-05-04T09:20:59.963Z,97303.06
2023-05-04T09:23:07.497Z,97296.91
2023-05-04T09:25:14.070Z,97297.72
2023-05-04T09:27:22.651Z,97294.09
2023-05-04T09:29:27.877Z,97299.75
2023-05-04T09:31:33.484Z,97301.94
2023-05-04T09:33:38.723Z,97298.03
2023-05-04T09:35:47.300Z,97290.59
2023-05-04T09:37:52.315Z,97291.69
2023-05-04T09:39:58.448Z,97284.28
2023-05-04T09:42:04.024Z,97280.66
2023-05-04T09:44:21.443Z,97280.00
2023-05-04T09:46:26.493Z,97284.06
2023-05-04T09:48:32.042Z,97276.66
2023-05-04T09:50:40.255Z,97279.94
2023-05-04T09:52:46.694Z,97268.72
2023-05-04T09:54:55.008Z,97279.28
2023-05-04T09:57:05.194Z,97279.44
2023-05-04T09:59:13.185Z,97275.50
2023-05-04T10:01:18.998Z,97278.78
2023-05-04T10:03:24.462Z,97271.63
2023-05-04T10:05:30.361Z,97270.22
2023-05-04T10:07:36.771Z,97262.66
2023-05-04T10:09:42.368Z,97264.69
2023-05-04T10:11:47.582Z,97252.22
2023-05-04T10:13:52.877Z,97256.59
2023-05-04T10:16:10.423Z,97252.78
2023-05-04T10:18:27.074Z,97254.53
2023-05-04T10:20:44.741Z,97250.88
2023-05-04T10:23:06.066Z,97240.75
2023-05-04T10:25:34.939Z,97244.97
2023-05-04T10:27:47.785Z,97251.25
2023-05-04T10:29:53.893Z,97242.63
2023-05-04T10:32:01.782Z,97246.66
2023-05-04T10:34:06.706Z,97243.81
2023-05-04T10:36:12.237Z,97234.34
2023-05-04T10:38:17.215Z,97241.25
2023-05-04T10:40:22.512Z,97239.69
2023-05-04T10:42:27.690Z,97242.38
2023-05-04T10:44:34.583Z,97241.56
2023-05-04T10:46:39.477Z,97240.34
2023-05-04T10:48:46.994Z,97231.38
2023-05-04T10:50:53.745Z,97232.16
2023-05-04T10:53:00.105Z,97225.09
2023-05-04T10:55:07.105Z,97220.84
2023-05-04T10:57:16.786Z,97218.81
2023-05-04T10:59:22.304Z,97210.00
2023-05-04T11:01:27.773Z,97207.00
2023-05-04T11:03:42.447Z,97205.41
2023-05-04T11:05:52.536Z,97203.84
2023-05-04T11:07:58.912Z,97202.75
2023-05-04T11:10:05.412Z,97203.84
2023-05-04T11:12:13.337Z,97200.06
2023-05-04T11:14:27.078Z,97206.06
2023-05-04T11:16:32.603Z,97209.09
2023-05-04T11:18:38.360Z,97205.63
2023-05-04T11:20:43.577Z,97211.75
2023-05-04T11:22:51.422Z,97208.75
2023-05-04T11:24:56.417Z,97210.66
2023-05-04T11:27:01.357Z,97205.31
2023-05-04T11:29:14.948Z,97208.63
2023-05-04T11:31:21.587Z,97203.59
2023-05-04T11:33:26.492Z,97201.22
2023-05-04T11:35:31.580Z,97196.19
2023-05-04T11:37:42.497Z,97194.16
2023-05-04T11:39:49.956Z,97195.75
2023-05-04T11:41:56.158Z,97195.75
2023-05-04T11:44:02.595Z,97186.94
2023-05-04T11:46:09.302Z,97178.91
2023-05-04T11:48:15.903Z,97184.25
2023-05-04T11:50:23.456Z,97175.75
2023-05-04T11:52:30.839Z,97173.38
2023-05-04T11:54:37.175Z,97173.38
2023-05-04T11:56:47.292Z,97174.03
2023-05-04T11:58:52.083Z,97164.44
2023-05-04T12:01:01.685Z,97171.38
2023-05-04T12:03:06.923Z,97165.22
2023-05-04T12:05:17.151Z,97156.72
2023-05-04T12:07:22.117Z,97149.81
2023-05-04T12:09:26.925Z,97155.19
2023-05-04T12:11:31.946Z,97154.03
2023-05-04T12:13:39.694Z,97152.03
2023-05-04T12:15:44.487Z,97150.16
2023-05-04T12:17:49.389Z,97151.25
2023-05-04T12:19:55.514Z,97143.06
2023-05-04T12:22:02.494Z,97137.59
2023-05-04T12:24:09.157Z,97135.22
2023-05-04T12:26:16.920Z,97133.66
2023-05-04T12:28:26.959Z,97126.28
2023-05-04T12:30:34.346Z,97116.22
2023-05-04T12:32:39.323Z,97131.03
2023-05-04T12:34:44.133Z,97122.56
2023-05-04T12:36:48.979Z,97125.84
2023-05-04T12:38:54.028Z,97125.72
2023-05-04T12:41:02.435Z,97121.78
2023-05-04T12:43:07.180Z,97115.66
2023-05-04T12:45:14.248Z,97103.25
2023-05-04T12:47:24.594Z,97101.22
2023-05-04T12:49:29.443Z,97086.25
2023-05-04T12:51:34.703Z,97091.16
2023-05-04T12:53:41.268Z,97091.50
2023-05-04T12:55:46.070Z,97088.34
2023-05-04T12:57:51.194Z,97085.22
2023-05-04T12:59:56.142Z,97084.41
2023-05-04T13:02:01.908Z,97076.38
2023-05-04T13:04:09.315Z,97083.19
2023-05-04T13:06:14.371Z,97083.97
2023-05-04T13:08:19.989Z,97082.38
2023-05-04T13:10:24.989Z,97074.69
2023-05-04T13:12:30.068Z,97078.94
2023-05-04T13:14:39.268Z,97070.91
2023-05-04T13:16:44.772Z,97074.69
2023-05-04T13:18:49.599Z,97076.59
2023-05-04T13:20:57.010Z,97066.97
2023-05-04T13:23:01.888Z,97055.50
2023-05-04T13:25:08.020Z,97058.16
2023-05-04T13:27:13.290Z,97073.91
2023-05-04T13:29:18.121Z,97061.63
2023-05-04T13:31:22.942Z,97064.28
2023-05-04T13:33:29.656Z,97066.66
2023-05-04T13:35:35.310Z,97051.72
2023-05-04T13:37:42.845Z,97046.38
2023-05-04T13:39:48.036Z,97061.28
2023-05-04T13:41:52.824Z,97048.72
2023-05-04T13:43:57.660Z,97047.59
2023-05-04T13:46:05.782Z,97048.38
2023-05-04T13:48:10.649Z,97046.16
2023-05-04T13:50:15.960Z,97042.38
2023-05-04T13:52:20.927Z,97045.50
2023-05-04T13:54:28.500Z,97032.44
2023-05-04T13:56:33.378Z,97031.66
2023-05-04T13:58:38.093Z,97035.13
2023-05-04T14:00:43.439Z,97034.03
2023-05-04T14:02:48.458Z,97032.91
2023-05-04T14:04:53.283Z,97034.78
2023-05-04T14:06:58.027Z,97033.53
2023-05-04T14:09:03.063Z,97024.75
2023-05-04T14:11:10.413Z,97022.41
2023-05-04T14:13:15.418Z,97020.50
2023-05-04T14:15:22.839Z,97019.72
2023-05-04T14:17:28.067Z,97011.69
2023-05-04T14:19:32.830Z,97010.91
2023-05-04T14:21:38.217Z,97011.69
2023-05-04T14:23:44.852Z,97015.94
2023-05-04T14:25:53.426Z,97013.25
2023-05-04T14:28:00.954Z,97006.78
2023-05-04T14:30:05.986Z,97011.34
2023-05-04T14:32:10.941Z,97010.25
2023-05-04T14:34:18.518Z,97012.94
2023-05-04T14:36:23.276Z,97005.69
2023-05-04T14:38:28.690Z,97014.47
2023-05-04T14:40:33.576Z,97005.69
2023-05-04T14:42:38.693Z,97007.59
2023-05-04T14:44:46.083Z,96997.66
2023-05-04T14:46:50.919Z,96998.13
2023-05-04T14:48:55.654Z,96998.91
2023-05-04T14:51:00.618Z,96990.53
2023-05-04T14:53:05.507Z,96997.47
2023-05-04T14:55:11.835Z,97002.50
2023-05-04T14:57:16.579Z,96991.78
2023-05-04T14:59:21.612Z,96997.91
2023-05-04T15:01:29.222Z,96999.00
2023-05-04T15:03:34.235Z,96999.47
2023-05-04T15:05:39.146Z,96996.81
2023-05-04T15:07:44.083Z,96996.81
2023-05-04T15:09:48.864Z,96996.81
2023-05-04T15:11:53.641Z,96996.81
2023-05-04T15:13:59.263Z,96994.91
2023-05-04T15:16:04.834Z,96993.00
2023-05-04T15:18:12.774Z,96994.13
2023-05-04T15:20:18.564Z,96994.13
2023-05-04T15:22:23.406Z,97002.16
2023-05-04T15:24:28.258Z,96990.66
2023-05-04T15:26:34.699Z,96990.66
2023-05-04T15:28:39.589Z,96991.44
2023-05-04T15:30:45.196Z,96987.97
2023-05-04T15:32:50.135Z,96981.84
2023-05-04T15:35:05.312Z,96988.31
2023-05-04T15:37:10.979Z,96985.28
2023-05-04T15:39:16.215Z,96985.63
2023-05-04T15:41:21.346Z,96989.09
2023-05-04T15:43:26.456Z,96982.94
2023-05-04T15:45:31.566Z,96982.19
2023-05-04T15:47:36.673Z,96978.41
2023-05-04T15:49:41.886Z,96984.06
2023-05-04T15:51:49.246Z,96979.50
2023-05-04T15:53:54.249Z,96976.03
2023-05-04T15:55:59.022Z,96972.56
2023-05-04T15:58:03.983Z,96969.88
2023-05-04T16:00:10.922Z,96975.25
2023-05-04T16:02:15.722Z,96967.53
2023-05-04T16:04:20.960Z,96971.34
2023-05-04T16:06:25.803Z,96972.91
2023-05-04T16:08:33.156Z,96970.56
2023-05-04T16:10:37.956Z,96962.19
2023-05-04T16:12:42.760Z,96967.88
2023-05-04T16:14:47.536Z,96960.94
2023-05-04T16:16:52.360Z,96962.84
2023-05-04T16:18:57.406Z,96960.94
2023-05-04T16:21:02.241Z,96959.41
2023-05-04T16:23:07.225Z,96954.81
2023-05-04T16:25:14.776Z,96946.00
2023-05-04T16:27:19.629Z,96946.00
2023-05-04T16:29:24.640Z,96947.56
2023-05-04T16:31:29.687Z,96952.13
2023-05-04T16:33:34.738Z,96965.53
2023-05-04T16:35:40.314Z,96954.03
2023-05-04T16:37:45.121Z,96944.09
2023-05-04T16:39:50.614Z,96942.53
2023-05-04T16:41:57.928Z,96947.88
2023-05-04T16:44:02.714Z,96944.44
2023-05-04T16:46:07.749Z,96943.34
2023-05-04T16:48:12.660Z,96944.44
2023-05-04T16:50:17.573Z,96946.00
2023-05-04T16:52:22.810Z,96946.00
2023-05-04T16:54:27.588Z,96935.31
2023-05-04T16:56:32.501Z,96946.78
2023-05-04T16:58:40.057Z,96937.97
2023-05-04T17:00:45.216Z,96944.09
2023-05-04T17:02:50.055Z,96943.34
2023-05-04T17:04:55.209Z,96937.19
2023-05-04T17:07:01.558Z,96937.50
2023-05-04T17:09:07.237Z,96943.66
2023-05-04T17:11:12.045Z,96934.06
2023-05-04T17:13:17.029Z,96936.75
2023-05-04T17:15:24.521Z,96939.75
2023-05-04T17:17:29.346Z,96937.06
2023-05-04T17:19:34.356Z,96929.38
2023-05-04T17:21:39.415Z,96933.16
2023-05-04T17:23:44.313Z,96931.56
2023-05-04T17:25:50.354Z,96943.41
2023-05-04T17:27:55.152Z,96934.91
2023-05-04T17:29:59.996Z,96934.91
2023-05-04T17:32:08.225Z,96933.38
2023-05-04T17:34:13.088Z,96939.50
2023-05-04T17:36:17.866Z,96939.81
2023-05-04T17:38:22.787Z,96945.94
2023-05-04T17:40:28.160Z,96941.72
2023-05-04T17:42:33.231Z,96934.47
2023-05-04T17:44:38.084Z,96927.88
2023-05-04T17:46:43.183Z,96937.81
2023-05-04T17:48:52.400Z,96938.91
2023-05-04T17:50:57.266Z,96939.22
2023-05-04T17:53:02.017Z,96943.00
2023-05-04T17:55:07.738Z,96950.59
2023-05-04T17:57:12.478Z,96949.00
2023-05-04T17:59:17.978Z,96955.81
2023-05-04T18:01:22.934Z,96949.66
2023-05-04T18:03:28.036Z,96953.44
2023-05-04T18:05:35.630Z,96950.31
2023-05-04T18:07:40.480Z,96957.25
2023-05-04T18:09:45.355Z,96953.31
2023-05-04T18:11:50.515Z,96955.56
2023-05-04T18:13:56.647Z,96958.56
2023-05-04T18:16:01.568Z,96956.19
2023-05-04T18:18:06.545Z,96964.53
2023-05-04T18:20:13.275Z,96963.00
2023-05-04T18:22:20.810Z,96964.09
2023-05-04T18:24:26.116Z,96973.53
2023-05-04T18:26:31.279Z,96972.44
2023-05-04T18:28:36.298Z,96971.50
2023-05-04T18:30:41.076Z,96971.84
2023-05-04T18:32:46.774Z,96972.16
2023-05-04T18:34:53.308Z,96972.50
2023-05-04T18:36:58.113Z,96979.25
2023-05-04T18:39:05.558Z,96974.91
2023-05-04T18:41:12.008Z,96979.78
2023-05-04T18:43:17.073Z,96971.59
2023-05-04T18:45:22.121Z,96974.91
2023-05-04T18:47:27.174Z,96979.00
2023-05-04T18:49:31.973Z,96981.88
2023-05-04T18:51:36.780Z,96983.31
2023-05-04T18:53:41.637Z,96978.59
2023-05-04T18:55:49.044Z,96993.72
2023-05-04T18:57:53.816Z,96986.34
2023-05-04T18:59:58.516Z,96987.75
2023-05-04T19:02:04.277Z,96993.75
2023-05-04T19:04:09.074Z,96989.03
2023-05-04T19:06:13.843Z,96994.22
2023-05-04T19:08:19.074Z,96995.69
2023-05-04T19:10:23.839Z,97000.53
2023-05-04T19:12:31.177Z,96993.16
2023-05-04T19:14:35.936Z,96991.91
2023-05-04T19:16:40.626Z,96994.91
2023-05-04T19:18:46.171Z,96996.03
2023-05-04T19:20:51.290Z,96992.88
2023-05-04T19:22:56.110Z,96985.19
2023-05-04T19:25:00.799Z,96980.94
2023-05-04T19:27:05.601Z,96981.56
2023-05-04T19:29:13.076Z,96989.13
2023-05-04T19:31:18.111Z,96992.91
2023-05-04T19:33:24.617Z,96991.34
2023-05-04T19:35:31.092Z,96993.53
2023-05-04T19:37:36.288Z,96989.28
2023-05-04T19:39:41.287Z,96991.50
2023-05-04T19:41:46.235Z,96989.16
2023-05-04T19:43:51.084Z,96991.06
2023-05-04T19:45:58.979Z,96983.38
2023-05-04T19:48:04.697Z,96982.56
2023-05-04T19:50:14.275Z,96989.78
2023-05-04T19:52:19.255Z,96983.19
2023-05-04T19:54:23.979Z,96984.28
2023-05-04T19:56:28.743Z,96991.53
2023-05-04T19:58:33.442Z,96990.28
2023-05-04T20:00:38.194Z,96986.81
2023-05-04T20:02:45.953Z,96988.25
2023-05-04T20:04:51.482Z,96994.34
2023-05-04T20:06:56.237Z,96993.91
2023-05-04T20:09:01.019Z,96985.13
2023-05-04T20:11:05.734Z,96989.66
2023-05-04T20:13:10.452Z,96999.56
2023-05-04T20:15:16.165Z,97000.66
2023-05-04T20:17:21.063Z,96996.41
2023-05-04T20:19:28.582Z,97003.94
2023-05-04T20:21:33.765Z,97001.25
2023-05-04T20:23:38.477Z,97001.56
2023-05-04T20:25:43.168Z,96999.22
2023-05-04T20:27:49.183Z,97004.09
2023-05-04T20:29:53.943Z,97000.94
2023-05-04T20:31:58.904Z,96996.72
2023-05-04T20:34:03.707Z,96994.66
2023-05-04T20:36:12.738Z,96994.53
2023-05-04T20:38:17.639Z,96995.94
2023-05-04T20:40:22.608Z,96993.91
2023-05-04T20:42:27.469Z,96987.31
2023-05-04T20:44:32.316Z,96990.59
2023-05-04T20:46:37.556Z,96989.34
2023-05-04T20:48:42.523Z,96981.19
2023-05-04T20:50:47.252Z,96980.25
2023-05-04T20:52:54.625Z,96975.88
2023-05-04T20:54:59.437Z,96979.94
2023-05-04T20:57:04.361Z,96977.91
2023-05-04T20:59:09.554Z,96975.53
2023-05-04T21:01:14.249Z,96972.75
2023-05-04T21:03:19.079Z,96968.31
2023-05-04T21:05:23.793Z,96965.19
2023-05-04T21:07:28.589Z,96957.31
2023-05-04T21:09:35.976Z,96962.53
2023-05-04T21:11:40.935Z,96966.59
2023-05-04T21:13:45.637Z,96958.44
2023-05-04T21:15:50.433Z,96962.50
2023-05-04T21:17:55.540Z,96958.91
2023-05-04T21:20:00.356Z,96962.97
2023-05-04T21:22:05.079Z,96960.94
2023-05-04T21:24:13.834Z,96965.03
2023-05-04T21:26:21.159Z,96957.59
2023-05-04T21:28:25.827Z,96960.25
2023-05-04T21:30:30.817Z,96955.53
2023-05-04T21:32:35.877Z,96955.88
2023-05-04T21:34:40.648Z,96947.41
2023-05-04T21:36:45.444Z,96948.03
2023-05-04T21:38:50.163Z,96944.09
2023-05-04T21:40:54.854Z,96946.31
2023-05-04T21:43:02.445Z,96946.91
2023-05-04T21:45:08.401Z,96941.09
2023-05-04T21:47:13.136Z,96957.72
2023-05-04T21:49:18.133Z,96956.44
2023-05-04T21:51:22.918Z,96951.75
2023-05-04T21:53:33.125Z,96951.28
2023-05-04T21:55:37.889Z,96950.00
2023-05-04T21:57:42.662Z,96952.19
2023-05-04T21:59:50.461Z,96953.91
2023-05-04T22:01:55.224Z,96951.88
2023-05-04T22:03:59.933Z,96949.81
2023-05-04T22:06:05.151Z,96951.22
2023-05-04T22:08:09.800Z,96952.63
2023-05-04T22:10:14.862Z,96948.69
2023-05-04T22:12:19.572Z,96952.75
2023-05-04T22:14:24.478Z,96952.59
2023-05-04T22:16:31.834Z,96959.31
2023-05-04T22:18:36.678Z,96961.03
2023-05-04T22:20:42.348Z,96955.22
2023-05-04T22:22:47.164Z,96952.88
2023-05-04T22:24:52.028Z,96959.91
2023-05-04T22:26:56.805Z,96965.53
2023-05-04T22:29:01.588Z,96967.72
2023-05-04T22:31:06.441Z,96959.25
2023-05-04T22:33:13.767Z,96968.63
2023-05-04T22:35:18.580Z,96962.81
2023-05-04T22:37:23.349Z,96960.47
2023-05-04T22:39:28.673Z,96961.56
2023-05-04T22:41:33.339Z,96960.28
2023-05-04T22:43:38.103Z,96961.41
2023-05-04T22:45:42.854Z,96960.13
2023-05-04T22:47:48.163Z,96961.19
2023-05-04T22:49:57.122Z,96966.03
2023-05-04T22:52:02.350Z,96959.44
2023-05-04T22:54:07.222Z,96962.72
2023-05-04T22:56:12.059Z,96959.56
2023-05-04T22:58:16.716Z,96970.03
2023-05-04T23:00:22.577Z,96961.88
2023-05-04T23:02:27.457Z,96962.50
2023-05-04T23:04:32.885Z,96961.22
2023-05-04T23:06:41.363Z,96959.16
2023-05-04T23:08:46.086Z,96956.31
2023-05-04T23:10:50.920Z,96964.59
2023-05-04T23:12:56.377Z,96955.03
2023-05-04T23:15:01.358Z,96954.88
2023-05-04T23:17:06.305Z,96962.66
2023-05-04T23:19:11.001Z,96957.16
2023-05-04T23:21:15.693Z,96963.88
2023-05-04T23:23:23.001Z,96967.16
2023-05-04T23:25:29.518Z,96959.78
2023-05-04T23:27:34.270Z,96965.09
2023-05-04T23:29:39.173Z,96955.81
2023-05-04T23:31:43.890Z,96962.53
2023-05-04T23:33:48.728Z,96960.97
2023-05-04T23:35:57.088Z,96958.94
2023-05-04T23:38:01.852Z,96955.47
2023-05-04T23:40:11.230Z,96957.94
2023-05-04T23:42:15.975Z,96954.50
2023-05-04T23:44:21.445Z,96948.69
2023-05-04T23:46:26.147Z,96954.31
2023-05-04T23:48:31.129Z,96957.28
2023-05-04T23:50:35.902Z,96957.28
2023-05-04T23:52:40.607Z,96943.50
2023-05-04T23:54:46.628Z,96940.34
2023-05-04T23:56:53.969Z,96945.19
2023-05-04T23:58:58.677Z,96940.16
